Terminal Aerodrome Forecast
Issued by NWS

Home | Current Version | Previous Version | Text Only | Print | Product List | Glossary On
Versions: 1 2 3 4 5 6 7 8 9 10 11 12
613
FTUS46 KMTR 152335
TAFSJC
TAF
KSJC 152335Z 1600/1624 32007KT P6SM FEW070 BKN090 BKN200
     FM160400 31005KT P6SM BKN100 OVC200
     FM160900 31004KT P6SM FEW060 SCT250
     FM161700 31015G24KT P6SM FEW250
     FM161900 31026G32KT P6SM FEW250
     FM162300 32017G25KT P6SM SCT250=

USA.gov is the U.S. government's official web portal to all federal, state and local government web resources and services.